Gillette, WY (82716)

8:38 PM MDT on July 23, 2016 (GMT -0600)
RAWS | | Change Station
Active Advisory: Fire Weather Advisory

Elev 4396 ft 44.47 °N, 105.84 °W | Updated 47 minutes ago

Clear
Clear
81.0 °F
Feels Like 81.0 °F
N
13.0
Wind Variable Wind from NNE
Gusts 20.0 mph

Today
High -- | Low -- °F
--% Chance of Precip.
Yesterday
High -- | Low -- °F
Precip. -- in
Pressure 29.90 in
Visibility 10.0 miles
Clouds Clear
Dew Point 32.0 °F
Humidity 17%
Rainfall in
Snow Depth Not available.
5:40 AM 8:37 PM
Waning Gibbous, 80% visible
METAR KGCC 240153Z AUTO 36009KT 10SM CLR 26/01 A3004 RMK AO2 SLP123 T02560006
Pressure 29.90 in
Visibility 10.0 miles
Clouds Clear
Dew Point 32.0 °F
Humidity 17%
Rainfall in
Snow Depth Not available.
5:40 AM 8:37 PM
Waning Gibbous, 80% visible
METAR KGCC 240153Z AUTO 36009KT 10SM CLR 26/01 A3004 RMK AO2 SLP123 T02560006

10-Day Weather Forecast

Almanac

Astronomy

Jul. 23, 2016 Rise Set
Actual Time
Civil Twilight
Nautical Twilight
Astronomical Twilight
Moon
Length of Visible Light
Length of Day
Tomorrow will be .
, % of the Moon is Illuminated

Today's Extremes

State Highs State Lows

Community

WunderPhotos

Upload Photos

1,927,000 photos uploaded!

WunderBlog® & News

Nearby

Air Quality

  Air Quality AQ Index Pollutant
Not available.

Snow Depth

Station Depth Elevation

Earthquake Activity

City Distance Mag. Time & Date
Minimum magnitude displayed is 2.5.

Coastal Water Temperatures

Place Temperature

Stations

Nearby Weather Stations

Station Location Temp. Windchill Dew Point Humidity Wind Precip. Elev Updated Type
                   

Watches & Warnings

Fire Weather Advisory
Issued: 8:36 PM MDT Jul. 23, 2016 – National Weather Service

... Red flag warning is cancelled for fire weather zones
259... 260... 261... 262... 264... 297... 298 and 299...

The National Weather Service in Rapid City has cancelled the red
flag warning.

Winds are decreasing and relative humidities rising.